»·PEaware :: UAL481 KLAX-KSFO

UAL481 :: KLAX-KSFO

FLIGHT INFORMATION

Flight Status: Arrived
Operator:
United Airlines
More flights by this operator :: More flights under this callsign
Pilot: Roland W. (25691)
Aircraft: BOEING 777-200
(B772)
More flights by this aircraft type
Origin: KLAX Los Angeles Intl
United States
Destination: KSFO San Francisco Intl
United States
More flights between these airports :: More routes between these airports
Route: SUMMR1 STOKD SERFR SERFR3
File this flight plan on PilotEdge
Remarks: PBN / A1B1C1D1L1O1S2 NAV / RNVD1E2A1 DOF / 190910 REG / N777UA EET / KZOA0026 SEL / AQBG OPR / UA PER / D RMK / TCAS
Altitude:
(Current/Filed)
36,000ft
Speed:
(Current/Filed)
480kts
Departed: 09-Sep-19 05:53 PM
Arrived: 09-Sep-19 06:49 PM
Distance/Time
Traveled:
294nm/0:56
Distance/Time
To Go:
Arrived

Flight Plot

Page will automatically refresh every two minutes.

Flight plan parsing failed; only flown route is shown


Map Options




Map Legend


Flown Route
Filed Route
Departure Airport
Arrival Airport
Navaid (VOR, NDB)
Fix

Horizontal Profiles

Position Reports

Time Latitude Longitude Heading Altitude Ground
Speed
09-Sep-19 17:07 33.940254 -118.399944 33 139ft 0kts
09-Sep-19 17:08 33.940254 -118.399944 33 139ft 0kts
09-Sep-19 17:09 33.940254 -118.399944 33 139ft 0kts
09-Sep-19 17:10 33.940254 -118.399944 33 139ft 0kts
09-Sep-19 17:11 33.940254 -118.399944 33 139ft 0kts
09-Sep-19 17:12 33.940254 -118.399944 33 139ft 0kts
09-Sep-19 17:13 33.940254 -118.399944 33 139ft 0kts
09-Sep-19 17:14 33.940254 -118.399944 33 139ft 0kts
09-Sep-19 17:15 33.940254 -118.399944 33 139ft 0kts
09-Sep-19 17:16 33.940254 -118.399944 33 139ft 0kts
09-Sep-19 17:17 33.940254 -118.399944 33 139ft 0kts
09-Sep-19 17:18 33.940254 -118.399944 33 140ft 0kts
09-Sep-19 17:19 33.940254 -118.399944 33 140ft 0kts
09-Sep-19 17:20 33.940254 -118.399944 33 140ft 0kts
09-Sep-19 17:21 33.940254 -118.399944 33 140ft 0kts
09-Sep-19 17:22 33.940254 -118.399944 33 140ft 0kts
09-Sep-19 17:23 33.940254 -118.399944 33 140ft 0kts
09-Sep-19 17:24 33.940254 -118.399944 33 140ft 0kts
09-Sep-19 17:25 33.940254 -118.399944 33 140ft 0kts
09-Sep-19 17:26 33.940254 -118.399944 33 140ft 0kts
09-Sep-19 17:27 33.940254 -118.399944 33 140ft 0kts
09-Sep-19 17:28 33.940254 -118.399944 33 140ft 0kts
09-Sep-19 17:29 33.940254 -118.399944 33 140ft 0kts
09-Sep-19 17:30 33.940254 -118.399944 33 140ft 0kts
09-Sep-19 17:31 33.940254 -118.399944 33 140ft 0kts
09-Sep-19 17:32 33.940254 -118.399944 33 140ft 0kts
09-Sep-19 17:33 33.940254 -118.399944 33 140ft 0kts
09-Sep-19 17:34 33.940254 -118.399944 33 140ft 0kts
09-Sep-19 17:35 33.940254 -118.399944 33 140ft 0kts
09-Sep-19 17:36 33.940254 -118.399944 33 140ft 0kts
09-Sep-19 17:37 33.940254 -118.399944 33 140ft 0kts
09-Sep-19 17:38 33.940254 -118.399944 33 140ft 0kts
09-Sep-19 17:39 33.939813 -118.400375 42 140ft 2kts
09-Sep-19 17:40 33.939486 -118.400963 84 140ft 2kts
09-Sep-19 17:41 33.939413 -118.401734 83 140ft 2kts
09-Sep-19 17:42 33.939335 -118.402506 83 140ft 2kts
09-Sep-19 17:43 33.939333 -118.402527 83 140ft 0kts
09-Sep-19 17:44 33.939333 -118.402527 83 140ft 0kts
09-Sep-19 17:45 33.939339 -118.402469 83 140ft 6kts
09-Sep-19 17:46 33.939801 -118.397974 82 140ft 14kts
09-Sep-19 17:47 33.940277 -118.393206 83 140ft 16kts
09-Sep-19 17:48 33.940708 -118.388379 83 140ft 12kts
09-Sep-19 17:49 33.941091 -118.384636 83 140ft 9kts
09-Sep-19 17:50 33.940624 -118.381868 80 140ft 8kts
09-Sep-19 17:51 33.940459 -118.380435 144 140ft 5kts
09-Sep-19 17:52 33.938809 -118.390045 262 140ft 122kts
09-Sep-19 17:53 33.933628 -118.445641 263 2720ft 185kts
09-Sep-19 17:54 33.928215 -118.502136 263 4558ft 250kts
09-Sep-19 17:55 33.920664 -118.593473 264 8571ft 286kts
09-Sep-19 17:56 33.917067 -118.694081 270 11887ft 339kts
09-Sep-19 17:57 33.917291 -118.774787 269 12002ft 366kts
09-Sep-19 17:58 33.918689 -118.898413 272 15219ft 371kts
09-Sep-19 17:59 33.933654 -119.022648 288 19283ft 387kts
09-Sep-19 18:00 33.985526 -119.139449 302 22623ft 408kts
09-Sep-19 18:01 34.068364 -119.235516 317 22890ft 416kts
09-Sep-19 18:02 34.142540 -119.300717 320 22889ft 417kts
09-Sep-19 18:03 34.238360 -119.382663 320 25047ft 428kts
09-Sep-19 18:04 34.320673 -119.453993 319 27723ft 441kts
09-Sep-19 18:05 34.420147 -119.544306 314 30781ft 451kts
09-Sep-19 18:06 34.507796 -119.650305 309 34114ft 439kts
09-Sep-19 18:07 34.563829 -119.720488 309 35728ft 440kts
09-Sep-19 18:08 34.631163 -119.804110 309 35894ft 437kts
09-Sep-19 18:09 34.698832 -119.887508 309 35916ft 436kts
09-Sep-19 18:10 34.765392 -119.969931 309 35925ft 435kts
09-Sep-19 18:11 34.849634 -120.074767 309 35926ft 432kts
09-Sep-19 18:12 34.933678 -120.179294 309 35933ft 431kts
09-Sep-19 18:13 35.016953 -120.283873 309 35932ft 429kts
09-Sep-19 18:14 35.084481 -120.368805 309 35933ft 428kts
09-Sep-19 18:15 35.171939 -120.467895 312 35938ft 429kts
09-Sep-19 18:16 35.247413 -120.552237 312 35938ft 429kts
09-Sep-19 18:17 35.335337 -120.650636 312 35939ft 427kts
09-Sep-19 18:18 35.422543 -120.749410 312 35937ft 427kts
09-Sep-19 18:19 35.511341 -120.846757 316 35938ft 430kts
09-Sep-19 18:20 35.607737 -120.934399 317 35939ft 430kts
09-Sep-19 18:21 35.702948 -121.022829 317 35940ft 428kts
09-Sep-19 18:22 35.783339 -121.097758 317 35941ft 428kts
09-Sep-19 18:23 35.878274 -121.186101 317 35944ft 427kts
09-Sep-19 18:24 35.972753 -121.275069 317 35950ft 425kts
09-Sep-19 18:25 36.063395 -121.360605 317 32231ft 409kts
09-Sep-19 18:26 36.152964 -121.432100 322 28852ft 383kts
09-Sep-19 18:27 36.247272 -121.504587 322 26588ft 395kts
09-Sep-19 18:28 36.339356 -121.576456 322 25274ft 387kts
09-Sep-19 18:29 36.429761 -121.647550 322 23142ft 379kts
09-Sep-19 18:30 36.516277 -121.715554 322 21738ft 355kts
09-Sep-19 18:31 36.599143 -121.781031 322 19808ft 350kts
09-Sep-19 18:32 36.680355 -121.845560 322 17949ft 344kts
09-Sep-19 18:33 36.765314 -121.899314 337 16101ft 344kts
09-Sep-19 18:34 36.858164 -121.926822 343 14279ft 341kts
09-Sep-19 18:35 36.950127 -121.952496 343 12513ft 334kts
09-Sep-19 18:36 37.035908 -121.985057 339 10932ft 323kts
09-Sep-19 18:37 37.116832 -122.017275 340 10285ft 288kts
09-Sep-19 18:38 37.190192 -122.046075 340 9402ft 270kts
09-Sep-19 18:39 37.260971 -122.073852 340 8234ft 266kts
09-Sep-19 18:40 37.331600 -122.101648 340 6869ft 268kts
09-Sep-19 18:41 37.400882 -122.127887 342 6016ft 251kts
09-Sep-19 18:43 37.466303 -122.149869 342 6004ft 230kts
09-Sep-19 18:44 37.523471 -122.176593 324 4587ft 209kts
09-Sep-19 18:45 37.558524 -122.224299 294 3218ft 176kts
09-Sep-19 18:46 37.579713 -122.277253 295 1725ft 169kts
09-Sep-19 18:47 37.598416 -122.320629 293 681ft 125kts
09-Sep-19 18:48 37.614822 -122.360480 299 27ft 121kts
09-Sep-19 18:49 37.623178 -122.382154 225 26ft 8kts
09-Sep-19 18:50 37.621171 -122.383232 197 26ft 6kts
09-Sep-19 18:51 37.620925 -122.385057 296 26ft 7kts
09-Sep-19 18:52 37.621635 -122.387180 229 26ft 4kts
09-Sep-19 18:53 37.620783 -122.387692 207 26ft 0kts
09-Sep-19 18:54 37.620759 -122.387708 207 26ft 0kts
09-Sep-19 18:55 37.620759 -122.387708 207 26ft 0kts
09-Sep-19 18:56 37.620759 -122.387708 207 26ft 0kts
09-Sep-19 18:57 37.620759 -122.387708 207 26ft 0kts
09-Sep-19 18:58 37.620759 -122.387708 207 26ft 0kts
09-Sep-19 18:59 37.620759 -122.387708 207 26ft 0kts
09-Sep-19 18:59 37.620759 -122.387708 207 26ft 0kts

Navigation Log

Ident Type
Flight plan parsing failed, navigation log unavailable